Time;durP1;ratioP1;P1;durP2;ratioP2;P2;SDS_P1;SDS_P2;PMS_P1;PMS_P2;Temp;Humidity;BMP_temperature;BMP_pressure;BME280_temperature;BME280_humidity;BME280_pressure;Samples;Min_cycle;Max_cycle;Signal;HPM_P1;HPM_P2
2022/04/26 03:36:37;;;;;;;35.88;22.58;;;6.60;99.90;;;;;;5088166;28;20037;-80
2022/04/26 03:39:03;;;;;;;36.22;22.95;;;6.60;99.90;;;;;;5085112;28;20027;-78
2022/04/26 03:41:28;;;;;;;36.08;22.48;;;6.60;99.90;;;;;;5086259;28;20035;-78
2022/04/26 03:43:54;;;;;;;36.83;24.38;;;6.60;99.90;;;;;;5081030;28;20452;-78
2022/04/26 03:46:19;;;;;;;41.90;25.00;;;6.50;99.90;;;;;;5082222;28;20016;-80
2022/04/26 03:48:45;;;;;;;44.40;25.52;;;6.60;99.90;;;;;;5086592;28;20414;-79
2022/04/26 03:51:10;;;;;;;46.25;26.73;;;6.60;99.90;;;;;;5082966;28;20024;-78
2022/04/26 03:53:37;;;;;;;41.38;25.17;;;6.60;99.90;;;;;;5079336;28;20042;-79
2022/04/26 03:56:03;;;;;;;46.88;26.83;;;6.60;99.90;;;;;;5088135;28;20085;-78
2022/04/26 03:58:29;;;;;;;40.55;25.30;;;6.60;99.90;;;;;;5083674;28;20025;-78
2022/04/26 04:00:55;;;;;;;44.35;27.95;;;6.60;99.90;;;;;;5084043;28;20039;-79
2022/04/26 04:03:20;;;;;;;44.97;26.60;;;6.60;99.90;;;;;;5078008;28;20032;-78
2022/04/26 04:05:46;;;;;;;44.38;26.38;;;6.70;99.90;;;;;;5079501;28;20024;-78
2022/04/26 04:08:11;;;;;;;52.53;27.33;;;6.70;99.90;;;;;;5086848;28;20027;-79
2022/04/26 04:10:37;;;;;;;46.20;28.08;;;6.70;99.90;;;;;;5082854;28;20039;-79
2022/04/26 04:13:02;;;;;;;50.22;28.95;;;6.70;99.90;;;;;;5079899;28;20495;-79
2022/04/26 04:15:28;;;;;;;45.03;27.13;;;6.80;99.90;;;;;;5080623;28;20025;-78
2022/04/26 04:17:53;;;;;;;45.53;25.55;;;6.80;99.90;;;;;;5076117;28;20116;-78
2022/04/26 04:20:19;;;;;;;47.03;27.33;;;6.90;99.90;;;;;;5074037;28;20024;-77
2022/04/26 04:22:45;;;;;;;48.05;28.27;;;6.90;99.90;;;;;;5076822;28;20036;-78
2022/04/26 04:25:10;;;;;;;45.92;27.35;;;6.90;99.90;;;;;;5076184;28;20024;-78
2022/04/26 04:27:36;;;;;;;45.80;25.45;;;7.00;99.90;;;;;;5074133;28;20117;-78
2022/04/26 04:30:03;;;;;;;44.78;27.23;;;7.00;99.90;;;;;;5074600;28;20135;-80
2022/04/26 04:32:29;;;;;;;47.78;27.58;;;7.10;99.90;;;;;;5082601;28;20024;-79
2022/04/26 04:34:55;;;;;;;44.72;26.70;;;7.10;99.90;;;;;;5074629;28;20020;-78
2022/04/26 04:37:22;;;;;;;46.53;26.70;;;7.10;99.90;;;;;;5082114;28;20028;-77
2022/04/26 04:39:51;;;;;;;43.13;26.38;;;7.10;99.90;;;;;;5080776;28;20036;-78
2022/04/26 04:42:16;;;;;;;46.28;27.20;;;7.20;99.90;;;;;;5096505;28;20028;-78
2022/04/26 04:44:41;;;;;;;48.92;26.92;;;7.20;99.90;;;;;;5083500;28;20037;-77
2022/04/26 04:47:07;;;;;;;45.33;26.52;;;7.20;99.90;;;;;;5073890;28;20055;-78
2022/04/26 04:49:33;;;;;;;43.70;26.95;;;7.30;99.90;;;;;;5076446;28;20490;-78
2022/04/26 04:51:58;;;;;;;44.17;26.35;;;7.30;99.90;;;;;;5080237;28;20023;-78
2022/04/26 04:54:24;;;;;;;48.38;28.23;;;7.30;99.90;;;;;;5081181;28;20110;-78
2022/04/26 04:56:49;;;;;;;41.55;26.42;;;7.30;99.90;;;;;;5089492;28;20047;-78
2022/04/26 04:59:16;;;;;;;49.40;26.17;;;7.40;99.90;;;;;;5082194;28;20044;-78
2022/04/26 05:01:42;;;;;;;41.30;25.00;;;7.40;99.90;;;;;;5073195;28;20020;-78
2022/04/26 05:04:07;;;;;;;44.00;25.98;;;7.40;99.90;;;;;;5080604;28;20525;-78
2022/04/26 05:06:33;;;;;;;40.65;24.40;;;7.40;99.90;;;;;;5079386;28;20028;-78
2022/04/26 05:08:58;;;;;;;40.67;24.88;;;7.50;99.90;;;;;;5080565;28;20730;-78
2022/04/26 05:11:24;;;;;;;41.65;25.33;;;7.50;99.90;;;;;;5083938;28;20053;-78
2022/04/26 05:13:49;;;;;;;43.00;25.80;;;7.50;99.90;;;;;;5089195;28;20473;-78
2022/04/26 05:16:15;;;;;;;38.03;24.00;;;7.50;99.90;;;;;;5087537;28;20107;-78
2022/04/26 05:18:40;;;;;;;42.25;27.75;;;7.60;99.90;;;;;;5090228;28;20376;-78
2022/04/26 05:21:10;;;;;;;42.20;25.05;;;7.60;99.90;;;;;;5086545;28;20781;-78
2022/04/26 05:26:20;;;;;;;44.70;26.13;;;7.70;99.90;;;;;;5076938;28;21948;-78
2022/04/26 05:28:46;;;;;;;45.65;26.33;;;7.70;99.90;;;;;;5089199;28;20047;-78
2022/04/26 05:31:12;;;;;;;39.20;24.27;;;7.80;99.90;;;;;;5085920;28;20036;-78
2022/04/26 05:33:38;;;;;;;41.92;26.60;;;7.90;99.90;;;;;;5086983;28;20071;-79
2022/04/26 05:36:03;;;;;;;36.53;24.23;;;7.90;99.90;;;;;;5086583;28;20566;-78
2022/04/26 05:38:30;;;;;;;43.33;26.75;;;8.00;99.90;;;;;;5080833;28;20028;-78
2022/04/26 05:40:56;;;;;;;47.75;28.20;;;8.10;99.90;;;;;;5085122;28;20574;-79
2022/04/26 05:43:21;;;;;;;46.20;27.92;;;8.10;99.90;;;;;;5084865;28;20028;-78
2022/04/26 05:45:47;;;;;;;43.97;26.58;;;8.20;99.90;;;;;;5085064;28;20026;-78
2022/04/26 05:48:13;;;;;;;46.65;27.40;;;8.20;99.90;;;;;;5074021;28;20456;-78
2022/04/26 05:50:40;;;;;;;47.60;28.65;;;8.30;99.90;;;;;;5088138;28;20084;-79
2022/04/26 05:53:05;;;;;;;39.95;24.92;;;8.40;99.90;;;;;;5089401;28;20123;-78
2022/04/26 05:55:31;;;;;;;44.25;27.17;;;8.50;99.90;;;;;;5073830;28;20115;-79
2022/04/26 05:57:56;;;;;;;43.22;25.88;;;8.60;99.90;;;;;;5092757;28;20521;-79
2022/04/26 06:00:22;;;;;;;44.40;27.17;;;8.60;99.90;;;;;;5092051;28;20081;-78
2022/04/26 06:02:48;;;;;;;48.55;28.27;;;8.70;99.90;;;;;;5091971;28;20372;-79
2022/04/26 06:05:14;;;;;;;50.33;27.60;;;8.80;99.90;;;;;;5075903;28;20032;-79
2022/04/26 06:07:40;;;;;;;39.15;26.33;;;8.80;99.90;;;;;;5092144;28;20039;-79
2022/04/26 06:10:06;;;;;;;40.42;24.90;;;8.90;99.90;;;;;;5091908;28;20495;-78
2022/04/26 06:12:31;;;;;;;44.63;27.10;;;8.90;99.90;;;;;;5091857;28;20464;-79
2022/04/26 06:14:57;;;;;;;44.20;27.17;;;9.00;99.90;;;;;;5092320;28;20111;-78
2022/04/26 06:17:23;;;;;;;41.58;25.40;;;9.10;99.90;;;;;;5091797;28;20039;-78
2022/04/26 06:19:49;;;;;;;38.58;26.05;;;9.10;99.90;;;;;;5091953;28;20024;-78
2022/04/26 06:22:15;;;;;;;40.78;26.00;;;9.20;99.90;;;;;;5091532;28;20089;-79
2022/04/26 06:24:41;;;;;;;41.95;27.42;;;9.30;99.80;;;;;;5092517;28;20024;-78
2022/04/26 06:27:06;;;;;;;48.88;27.67;;;9.40;99.60;;;;;;5090723;28;20020;-78
2022/04/26 06:29:32;;;;;;;43.20;26.92;;;9.50;99.60;;;;;;5091459;28;20028;-79
2022/04/26 06:31:58;;;;;;;41.15;25.95;;;9.60;99.60;;;;;;5091950;28;20134;-79
2022/04/26 06:34:24;;;;;;;42.17;25.55;;;9.70;99.50;;;;;;5092161;28;20020;-80
2022/04/26 06:36:49;;;;;;;41.75;24.25;;;9.70;99.30;;;;;;5091374;28;20024;-79
2022/04/26 06:39:15;;;;;;;42.85;25.15;;;9.80;99.20;;;;;;5091443;28;20103;-79
2022/04/26 06:41:40;;;;;;;37.83;25.02;;;9.90;99.10;;;;;;5090140;28;20081;-78
2022/04/26 06:44:06;;;;;;;38.65;24.02;;;9.90;98.90;;;;;;5091872;28;20490;-79
2022/04/26 06:46:31;;;;;;;30.83;22.25;;;9.90;98.90;;;;;;5091081;28;20095;-79
2022/04/26 06:48:58;;;;;;;35.50;24.48;;;10.00;98.90;;;;;;5090029;28;20032;-80
2022/04/26 06:51:25;;;;;;;33.13;22.20;;;10.10;98.80;;;;;;5091327;28;20020;-79
2022/04/26 06:53:51;;;;;;;38.05;23.63;;;10.20;98.70;;;;;;5091129;28;20434;-79
2022/04/26 06:56:16;;;;;;;35.03;23.70;;;10.30;98.40;;;;;;5091221;28;20059;-77
2022/04/26 06:58:42;;;;;;;33.63;22.45;;;10.30;98.40;;;;;;5091098;28;20779;-78
2022/04/26 07:01:07;;;;;;;32.03;21.83;;;10.50;98.40;;;;;;5078116;28;20050;-78
2022/04/26 07:03:33;;;;;;;35.38;22.33;;;10.60;98.30;;;;;;5071239;28;20072;-78
2022/04/26 07:05:58;;;;;;;33.55;22.73;;;10.70;98.20;;;;;;5074064;28;20107;-78
2022/04/26 07:08:24;;;;;;;33.35;23.10;;;10.70;98.10;;;;;;5080688;28;20027;-78
2022/04/26 07:10:49;;;;;;;38.90;24.30;;;10.70;97.90;;;;;;5090550;28;20093;-79
2022/04/26 07:13:18;;;;;;;36.53;22.67;;;10.90;98.00;;;;;;5085152;28;20030;-79
2022/04/26 07:15:44;;;;;;;34.05;23.35;;;11.00;98.10;;;;;;5089418;28;20422;-79
2022/04/26 07:18:09;;;;;;;31.85;21.20;;;11.10;98.00;;;;;;5078782;28;20036;-79
2022/04/26 07:20:35;;;;;;;34.42;22.08;;;11.10;98.10;;;;;;5075737;28;20388;-79
2022/04/26 07:23:00;;;;;;;35.25;23.42;;;11.30;97.70;;;;;;5083837;28;20028;-79
2022/04/26 07:25:26;;;;;;;35.30;23.17;;;11.40;97.70;;;;;;5083524;28;20027;-79
2022/04/26 07:27:52;;;;;;;32.17;22.20;;;11.40;97.40;;;;;;5091068;28;20028;-78
2022/04/26 07:30:17;;;;;;;35.13;22.15;;;11.40;98.00;;;;;;5072313;28;20426;-79
2022/04/26 07:35:27;;;;;;;33.63;23.42;;;11.80;97.40;;;;;;5076342;28;20030;-79
2022/04/26 07:37:52;;;;;;;28.48;20.30;;;11.90;97.60;;;;;;5090855;28;20036;-78
2022/04/26 07:40:19;;;;;;;32.53;21.90;;;12.10;97.30;;;;;;5090554;28;20124;-80
2022/04/26 07:42:44;;;;;;;28.17;20.35;;;12.30;96.30;;;;;;5090881;28;20022;-81
2022/04/26 07:45:12;;;;;;;31.17;20.13;;;12.40;96.60;;;;;;5090343;28;20036;-78
2022/04/26 07:47:37;;;;;;;28.08;19.92;;;12.60;96.50;;;;;;5073708;28;20159;-78
2022/04/26 07:50:04;;;;;;;25.65;18.30;;;12.70;96.30;;;;;;5088512;28;20119;-79
2022/04/26 07:52:29;;;;;;;27.98;19.75;;;13.00;95.90;;;;;;5089098;28;20062;-78
2022/04/26 07:54:55;;;;;;;30.80;21.27;;;13.20;95.10;;;;;;5084356;28;20020;-78
2022/04/26 07:57:20;;;;;;;34.70;19.70;;;13.40;95.20;;;;;;5088725;28;20073;-78
2022/04/26 07:59:46;;;;;;;22.60;16.67;;;13.60;94.40;;;;;;5090053;28;20023;-78
2022/04/26 08:02:11;;;;;;;26.52;16.92;;;13.80;93.90;;;;;;5089728;28;20116;-78
2022/04/26 08:04:37;;;;;;;24.13;17.65;;;13.90;94.00;;;;;;5090420;28;20594;-78
2022/04/26 08:07:04;;;;;;;25.70;18.50;;;14.00;93.10;;;;;;5088788;28;20028;-78
2022/04/26 08:09:32;;;;;;;26.20;17.45;;;13.90;93.40;;;;;;5086877;28;20096;-78
2022/04/26 08:11:57;;;;;;;22.38;16.88;;;13.80;92.60;;;;;;5084400;28;20020;-78
2022/04/26 08:14:23;;;;;;;25.05;17.83;;;13.90;93.00;;;;;;5086128;28;20039;-78
2022/04/26 08:16:48;;;;;;;23.27;17.08;;;13.90;93.90;;;;;;5075068;28;20027;-79
2022/04/26 08:19:14;;;;;;;24.08;17.38;;;14.10;93.20;;;;;;5079326;28;20056;-78
2022/04/26 08:21:39;;;;;;;22.10;16.05;;;14.30;92.40;;;;;;5093842;28;20051;-78
2022/04/26 08:29:34;;;;;;;18.75;14.52;;;14.90;92.40;;;;;;5088968;28;20117;-78
2022/04/26 08:31:59;;;;;;;20.50;14.73;;;15.00;91.20;;;;;;5087420;28;20051;-79
2022/04/26 08:34:24;;;;;;;19.52;13.73;;;15.10;91.20;;;;;;5083252;28;20052;-78
2022/04/26 08:36:50;;;;;;;19.17;12.45;;;15.10;90.50;;;;;;5086072;28;20024;-79
2022/04/26 08:39:16;;;;;;;13.60;10.07;;;15.00;90.20;;;;;;5089841;28;20074;-79
2022/04/26 08:41:41;;;;;;;18.00;12.32;;;15.30;90.60;;;;;;5087462;28;20031;-78
2022/04/26 08:44:13;;;;;;;13.00;9.57;;;15.50;87.90;;;;;;5089032;28;20465;-78
2022/04/26 08:52:28;;;;;;;10.25;7.82;;;16.20;85.90;;;;;;5067448;28;20435;-79
2022/04/26 08:54:54;;;;;;;11.52;7.35;;;16.60;85.80;;;;;;5077422;28;20033;-79
2022/04/26 08:57:20;;;;;;;8.25;6.32;;;16.80;83.40;;;;;;5066870;28;20036;-79
2022/04/26 08:59:50;;;;;;;9.13;7.40;;;16.80;78.50;;;;;;5077851;28;20384;-79
2022/04/26 09:02:20;;;;;;;10.85;7.30;;;17.00;79.40;;;;;;5069137;28;20083;-79
2022/04/26 09:04:48;;;;;;;9.32;6.93;;;17.00;79.20;;;;;;5074766;28;20087;-79
2022/04/26 09:07:29;;;;;;;7.10;4.22;;;17.00;77.50;;;;;;5074282;28;20031;-78
2022/04/26 09:10:11;;;;;;;7.00;4.68;;;16.50;73.90;;;;;;5088846;28;20034;-79
2022/04/26 09:13:04;;;;;;;7.47;5.47;;;16.30;75.60;;;;;;5087470;28;20028;-78
2022/04/26 09:15:39;;;;;;;6.78;4.60;;;16.00;74.30;;;;;;5088518;28;20610;-79
2022/04/26 09:18:20;;;;;;;6.55;5.43;;;15.90;75.20;;;;;;5088535;28;20035;-79
2022/04/26 09:20:48;;;;;;;8.98;5.97;;;16.00;77.90;;;;;;5087630;28;20157;-78
2022/04/26 09:23:19;;;;;;;7.05;4.85;;;16.00;78.80;;;;;;5089090;28;20030;-79
2022/04/26 09:25:46;;;;;;;4.30;3.75;;;16.10;74.20;;;;;;5088268;28;20023;-79
2022/04/26 09:28:26;;;;;;;6.35;4.35;;;16.20;73.40;;;;;;5087197;28;20116;-78
2022/04/26 09:30:52;;;;;;;5.80;4.30;;;16.10;73.40;;;;;;5088640;28;20012;-78
2022/04/26 09:33:46;;;;;;;5.18;4.15;;;16.20;75.80;;;;;;5088899;28;20039;-78
2022/04/26 09:36:13;;;;;;;7.30;5.65;;;16.10;71.90;;;;;;5088048;28;20028;-79
2022/04/26 09:38:41;;;;;;;7.25;5.32;;;15.70;75.50;;;;;;5088747;28;20023;-79
2022/04/26 09:41:11;;;;;;;7.65;5.80;;;15.70;75.80;;;;;;5071611;28;20029;-78
2022/04/26 09:43:38;;;;;;;11.77;6.82;;;15.70;75.10;;;;;;5089166;28;20031;-79
2022/04/26 09:46:04;;;;;;;7.97;5.68;;;15.60;76.10;;;;;;5088155;28;20110;-79
2022/04/26 09:48:36;;;;;;;8.93;6.82;;;15.80;77.50;;;;;;5084337;28;20048;-80
2022/04/26 09:51:06;;;;;;;8.18;6.57;;;16.00;78.10;;;;;;5068909;28;20039;-78
2022/04/26 09:53:32;;;;;;;8.45;6.18;;;16.20;78.50;;;;;;5085589;28;20034;-79
2022/04/26 09:55:59;;;;;;;8.88;6.53;;;16.30;74.90;;;;;;5086375;28;20638;-79
2022/04/26 09:58:27;;;;;;;10.05;6.57;;;16.60;76.90;;;;;;5086341;28;20519;-79
2022/04/26 10:00:54;;;;;;;9.93;6.25;;;16.60;74.40;;;;;;5088399;28;20031;-79
2022/04/26 10:03:24;;;;;;;10.63;6.78;;;16.60;75.50;;;;;;5085480;28;20028;-78
2022/04/26 10:05:59;;;;;;;9.13;6.03;;;16.80;76.70;;;;;;5081586;28;20024;-78
2022/04/26 10:08:27;;;;;;;7.65;5.57;;;17.00;78.40;;;;;;5088427;28;20017;-79
2022/04/26 10:10:54;;;;;;;6.88;5.20;;;17.30;74.30;;;;;;5087976;28;20048;-78
2022/04/26 10:13:32;;;;;;;5.93;4.90;;;17.50;72.70;;;;;;5087993;28;20059;-79
2022/04/26 10:16:00;;;;;;;7.35;5.75;;;17.80;69.30;;;;;;5087776;28;20020;-78
2022/04/26 10:18:33;;;;;;;6.75;5.15;;;17.70;70.50;;;;;;5088325;28;20024;-79
2022/04/26 10:21:00;;;;;;;7.75;5.50;;;17.50;70.30;;;;;;5087789;28;20023;-79
2022/04/26 10:23:26;;;;;;;6.65;5.65;;;17.40;70.40;;;;;;5088085;28;20027;-78
2022/04/26 10:26:16;;;;;;;5.22;3.95;;;17.20;71.00;;;;;;5087680;28;20031;-78
2022/04/26 10:28:55;;;;;;;6.18;4.40;;;17.00;70.00;;;;;;5088274;28;20030;-78
2022/04/26 10:31:38;;;;;;;4.45;3.72;;;17.00;71.50;;;;;;5088070;28;20020;-80
2022/04/26 10:34:20;;;;;;;7.97;3.70;;;17.20;70.40;;;;;;5088185;28;20473;-80
2022/04/26 10:36:47;;;;;;;6.50;3.28;;;17.00;69.70;;;;;;5087748;28;20023;-80
2022/04/26 10:39:12;;;;;;;4.22;3.47;;;17.10;73.10;;;;;;5089972;28;20028;-80
2022/04/26 10:41:39;;;;;;;5.45;4.28;;;17.40;71.60;;;;;;5092002;28;20036;-80
2022/04/26 10:44:14;;;;;;;4.45;3.47;;;17.80;70.90;;;;;;5090393;28;20103;-81
2022/04/26 10:46:50;;;;;;;10.57;4.78;;;18.00;68.20;;;;;;5091502;28;20020;-81
2022/04/26 10:49:23;;;;;;;58.92;6.95;;;18.40;68.80;;;;;;5092490;28;20024;-83
2022/04/26 10:51:55;;;;;;;21.08;5.30;;;18.60;66.60;;;;;;5092276;28;20012;-82
2022/04/26 10:54:46;;;;;;;4.45;3.60;;;18.60;65.30;;;;;;5092369;28;20031;-82
2022/04/26 10:57:16;;;;;;;3.63;3.00;;;18.60;66.90;;;;;;5091555;28;20107;-83
2022/04/26 10:59:42;;;;;;;24.75;4.70;;;18.70;67.10;;;;;;5090561;28;20031;-82
2022/04/26 11:02:13;;;;;;;6.22;3.92;;;18.60;65.10;;;;;;5092119;28;20085;-84
2022/04/26 11:04:38;;;;;;;5.28;3.70;;;18.50;64.50;;;;;;5086588;28;20100;-83
2022/04/26 11:07:11;;;;;;;5.82;4.35;;;18.50;67.70;;;;;;5094247;28;20094;-83
2022/04/26 11:09:37;;;;;;;;;;;18.60;67.00;;;;;;5093672;28;20020;-82
2022/04/26 11:12:03;;;;;;;5.22;3.60;;;18.60;62.40;;;;;;5099332;28;19907;-84
2022/04/26 11:14:28;;;;;;;4.70;3.40;;;18.20;63.00;;;;;;5098012;28;20079;-84
2022/04/26 11:16:56;;;;;;;5.47;3.67;;;18.20;67.40;;;;;;5094309;28;20406;-82
2022/04/26 11:19:31;;;;;;;8.45;4.57;;;18.30;67.80;;;;;;5090954;28;20024;-85
2022/04/26 11:22:10;;;;;;;5.35;4.43;;;18.10;66.40;;;;;;5089354;28;20016;-84
2022/04/26 11:30:08;;;;;;;7.30;4.32;;;18.00;70.80;;;;;;5073702;28;20071;-85
2022/04/26 11:32:44;;;;;;;6.82;5.30;;;18.10;67.90;;;;;;5106762;28;20043;-84
2022/04/26 11:35:10;;;;;;;5.57;4.60;;;18.20;67.90;;;;;;5106653;28;20119;-85
2022/04/26 11:37:47;;;;;;;5.35;4.18;;;18.10;67.30;;;;;;5090637;28;20024;-83
2022/04/26 11:40:27;;;;;;;2.40;2.03;;;18.20;66.70;;;;;;5089584;28;20102;-85
2022/04/26 11:42:58;;;;;;;3.65;2.55;;;18.50;65.70;;;;;;5088522;28;20468;-85
2022/04/26 11:45:30;;;;;;;3.63;2.65;;;18.90;64.70;;;;;;5089464;28;20376;-85
2022/04/26 11:47:56;;;;;;;2.88;2.38;;;19.20;63.70;;;;;;5090514;28;20024;-84
2022/04/26 11:50:27;;;;;;;3.72;2.33;;;19.50;63.30;;;;;;5089773;28;20105;-86
2022/04/26 11:53:00;;;;;;;3.83;1.90;;;19.60;62.50;;;;;;5088969;28;20036;-85
2022/04/26 11:55:25;;;;;;;;;;;19.60;59.80;;;;;;5088866;28;20357;-86
2022/04/26 11:57:52;;;;;;;4.32;2.08;;;19.80;61.80;;;;;;5090477;28;19928;-85
2022/04/26 12:00:20;;;;;;;4.93;2.85;;;19.90;61.50;;;;;;5090296;28;20047;-85
2022/04/26 12:02:49;;;;;;;5.40;2.30;;;19.90;62.70;;;;;;5088820;28;20030;-86
2022/04/26 12:05:20;;;;;;;4.82;2.70;;;20.00;63.10;;;;;;5088223;28;20028;-83
2022/04/26 12:07:46;;;;;;;3.33;2.70;;;20.20;60.20;;;;;;5090385;28;20024;-84
2022/04/26 12:10:35;;;;;;;3.67;2.60;;;20.20;59.60;;;;;;5088106;28;20038;-84
2022/04/26 12:13:08;;;;;;;2.47;1.92;;;20.40;63.00;;;;;;5088497;28;20036;-89
2022/04/26 12:15:36;;;;;;;2.80;2.15;;;20.60;58.50;;;;;;5089402;28;20030;-86
2022/04/26 12:18:10;;;;;;;2.50;2.30;;;20.50;60.70;;;;;;5088341;28;20060;-83
2022/04/26 12:20:54;;;;;;;3.53;2.88;;;20.50;62.00;;;;;;5087476;28;20119;-87
2022/04/26 12:23:22;;;;;;;4.55;2.88;;;20.80;59.60;;;;;;5083102;28;20119;-85
2022/04/26 12:26:00;;;;;;;3.63;3.05;;;20.90;61.70;;;;;;5080958;28;20792;-85
2022/04/26 12:28:26;;;;;;;3.47;2.85;;;21.00;61.60;;;;;;5084437;28;20106;-84
2022/04/26 12:30:53;;;;;;;3.78;3.13;;;21.00;58.60;;;;;;5076517;28;20104;-84
2022/04/26 12:33:26;;;;;;;3.80;3.00;;;20.90;59.20;;;;;;5088624;28;20119;-88
2022/04/26 12:36:00;;;;;;;3.70;2.97;;;20.80;62.30;;;;;;5084227;28;20454;-85
2022/04/26 12:38:25;;;;;;;4.20;2.53;;;20.70;59.20;;;;;;5089543;28;20024;-85
2022/04/26 12:41:05;;;;;;;3.25;2.40;;;20.20;59.10;;;;;;5087731;28;20027;-85
2022/04/26 12:43:32;;;;;;;3.80;2.92;;;19.80;58.40;;;;;;5069272;28;20027;-85
2022/04/26 12:46:02;;;;;;;4.03;2.92;;;19.70;58.20;;;;;;5068958;28;20071;-85
2022/04/26 12:51:18;;;;;;;3.65;2.95;;;19.80;62.70;;;;;;5089777;28;20387;-87
2022/04/26 12:53:45;;;;;;;4.47;3.17;;;19.90;60.90;;;;;;5088205;28;20444;-86
2022/04/26 12:56:12;;;;;;;2.53;2.13;;;20.00;59.40;;;;;;5075974;28;20028;-87
2022/04/26 12:58:39;;;;;;;3.35;2.40;;;20.20;61.40;;;;;;5086528;28;20452;-84
2022/04/26 13:01:07;;;;;;;3.97;2.90;;;20.60;58.00;;;;;;5079446;28;20476;-85
2022/04/26 13:03:33;;;;;;;4.00;2.72;;;20.80;56.40;;;;;;5084216;28;20432;-86
2022/04/26 13:06:17;;;;;;;3.22;2.75;;;20.30;57.70;;;;;;5086455;28;20063;-85
2022/04/26 13:08:45;;;;;;;5.78;2.88;;;20.40;57.80;;;;;;5077738;28;20043;-84
2022/04/26 13:11:11;;;;;;;3.97;2.35;;;20.30;58.00;;;;;;5075837;28;20508;-82
2022/04/26 13:13:39;;;;;;;3.25;2.80;;;20.50;57.40;;;;;;5079213;28;20033;-83
2022/04/26 13:16:06;;;;;;;5.97;2.70;;;20.60;57.60;;;;;;5086900;28;20028;-84
2022/04/26 13:18:32;;;;;;;3.92;2.55;;;20.30;58.30;;;;;;5082099;28;20031;-81
2022/04/26 13:20:59;;;;;;;3.08;2.45;;;20.30;61.10;;;;;;5074826;28;20024;-81
2022/04/26 13:23:25;;;;;;;4.07;2.78;;;20.50;59.80;;;;;;5083186;28;20061;-81
2022/04/26 13:25:52;;;;;;;4.43;2.17;;;20.20;58.00;;;;;;5077114;28;20089;-81
2022/04/26 13:28:18;;;;;;;2.78;2.17;;;20.30;57.40;;;;;;5086184;28;20478;-85
2022/04/26 13:30:44;;;;;;;2.55;1.70;;;20.10;54.70;;;;;;5081004;28;20024;-84
2022/04/26 13:33:09;;;;;;;3.08;1.95;;;20.00;55.70;;;;;;5085687;28;20032;-86
2022/04/26 13:35:39;;;;;;;3.33;2.47;;;20.20;54.70;;;;;;5082043;28;20032;-84
2022/04/26 13:38:12;;;;;;;5.03;1.63;;;20.50;57.20;;;;;;5086699;28;20028;-87
2022/04/26 13:40:40;;;;;;;3.78;2.15;;;20.50;54.30;;;;;;5083102;28;20028;-84
2022/04/26 13:43:06;;;;;;;2.30;2.10;;;20.50;54.20;;;;;;5088013;28;20044;-87
2022/04/26 13:45:32;;;;;;;2.65;2.25;;;20.40;54.50;;;;;;5086871;28;20054;-85
2022/04/26 13:48:08;;;;;;;2.70;2.13;;;20.30;55.10;;;;;;5084925;28;20032;-86
2022/04/26 13:50:34;;;;;;;5.85;3.05;;;20.30;53.10;;;;;;5090253;28;20038;-86
2022/04/26 13:52:59;;;;;;;2.50;1.95;;;20.00;55.40;;;;;;5078322;28;20044;-85
2022/04/26 13:55:26;;;;;;;2.38;1.67;;;19.80;54.30;;;;;;5077812;28;20457;-85
2022/04/26 13:57:54;;;;;;;3.03;2.13;;;20.10;55.50;;;;;;5084500;28;20098;-85
2022/04/26 14:00:20;;;;;;;2.47;1.92;;;20.30;56.50;;;;;;5087324;28;20029;-84
2022/04/26 14:02:46;;;;;;;2.38;1.70;;;20.50;55.40;;;;;;5080356;28;20071;-84
2022/04/26 14:05:12;;;;;;;1.70;1.30;;;20.60;52.20;;;;;;5080645;28;20617;-84
2022/04/26 14:07:38;;;;;;;1.95;1.75;;;20.60;51.40;;;;;;5082817;28;20028;-85
2022/04/26 14:10:04;;;;;;;4.68;1.60;;;20.40;51.80;;;;;;5069674;28;20028;-82
2022/04/26 14:12:29;;;;;;;3.28;1.70;;;20.10;53.70;;;;;;5077429;28;20032;-85
2022/04/26 14:23:07;;;;;;;1.48;0.95;;;20.00;55.20;;;;;;5085617;28;20030;-86
2022/04/26 14:25:32;;;;;;;2.00;1.30;;;20.40;55.20;;;;;;5076661;28;20033;-86
2022/04/26 14:27:58;;;;;;;2.00;1.30;;;20.60;52.70;;;;;;5073036;28;20400;-86
2022/04/26 14:30:23;;;;;;;1.83;1.10;;;20.70;52.00;;;;;;5081273;28;20024;-86
2022/04/26 14:32:49;;;;;;;2.58;1.30;;;20.70;52.60;;;;;;5093157;28;20395;-87
2022/04/26 14:35:14;;;;;;;3.47;1.20;;;20.40;52.60;;;;;;5085073;28;20068;-81
2022/04/26 14:37:41;;;;;;;1.83;1.02;;;20.60;54.00;;;;;;5090215;28;20489;-84
2022/04/26 14:40:09;;;;;;;1.40;1.10;;;20.60;52.20;;;;;;5090205;28;20342;-87
2022/04/26 14:42:35;;;;;;;1.60;1.27;;;20.60;52.50;;;;;;5090836;28;20463;-86
2022/04/26 14:45:00;;;;;;;2.25;1.50;;;20.60;54.90;;;;;;5085294;28;20027;-85
2022/04/26 14:47:28;;;;;;;8.55;1.77;;;20.80;52.70;;;;;;5086287;28;20406;-85
2022/04/26 14:49:57;;;;;;;1.95;1.40;;;20.80;55.10;;;;;;5086262;28;20089;-84
2022/04/26 14:52:23;;;;;;;1.77;1.50;;;21.00;55.00;;;;;;5089694;28;20379;-85
2022/04/26 14:54:49;;;;;;;2.25;1.67;;;21.10;53.30;;;;;;5083979;28;20028;-86
2022/04/26 14:57:18;;;;;;;3.00;1.20;;;21.30;54.70;;;;;;5085818;28;20111;-84
2022/04/26 14:59:48;;;;;;;2.72;1.17;;;21.20;53.30;;;;;;5093727;28;20066;-86
2022/04/26 15:02:18;;;;;;;1.83;1.52;;;20.90;54.60;;;;;;5084899;28;20024;-85
2022/04/26 15:04:45;;;;;;;1.85;1.30;;;20.70;53.80;;;;;;5089300;28;20035;-84
2022/04/26 15:07:11;;;;;;;2.55;1.58;;;20.70;54.50;;;;;;5094268;28;20097;-85
2022/04/26 15:09:43;;;;;;;2.90;1.33;;;20.70;53.60;;;;;;5081933;28;20032;-85
2022/04/26 15:17:40;;;;;;;3.72;1.50;;;20.20;51.90;;;;;;5094687;28;20422;-84
2022/04/26 15:20:06;;;;;;;1.77;1.20;;;19.80;52.50;;;;;;5096591;28;20073;-84
2022/04/26 15:22:32;;;;;;;1.63;1.35;;;19.50;52.40;;;;;;5079155;28;20125;-84
2022/04/26 15:24:58;;;;;;;1.30;1.13;;;19.10;53.70;;;;;;5074727;28;20032;-83
2022/04/26 15:27:23;;;;;;;1.70;1.30;;;18.90;54.50;;;;;;5087716;28;20025;-84
2022/04/26 15:29:49;;;;;;;1.38;1.25;;;18.70;54.60;;;;;;5083593;28;20024;-84
2022/04/26 15:32:15;;;;;;;1.80;1.23;;;18.40;56.30;;;;;;5089137;28;20421;-84
2022/04/26 15:34:41;;;;;;;10.20;1.63;;;18.50;57.10;;;;;;5080980;28;20020;-83
2022/04/26 15:37:07;;;;;;;2.28;1.52;;;18.90;58.80;;;;;;5088549;28;20032;-81
2022/04/26 15:39:33;;;;;;;5.97;1.90;;;19.20;55.90;;;;;;5092062;28;20052;-86
2022/04/26 15:41:59;;;;;;;1.25;1.05;;;19.40;54.70;;;;;;5091433;28;20027;-85
2022/04/26 15:44:25;;;;;;;3.20;1.45;;;19.40;54.60;;;;;;5091385;28;20020;-85
2022/04/26 15:46:54;;;;;;;2.03;1.52;;;19.30;54.50;;;;;;5075165;28;20044;-85
2022/04/26 15:49:20;;;;;;;2.17;1.33;;;19.20;54.50;;;;;;5091249;28;20035;-85
2022/04/26 15:51:47;;;;;;;1.65;1.40;;;19.10;54.90;;;;;;5075284;28;20625;-85
2022/04/26 15:54:14;;;;;;;3.05;1.75;;;19.30;57.50;;;;;;5071283;28;20878;-84
2022/04/26 15:56:41;;;;;;;1.70;1.50;;;19.50;56.00;;;;;;5087864;28;20115;-87
2022/04/26 15:59:07;;;;;;;1.40;1.30;;;19.80;57.50;;;;;;5095880;28;20517;-85
2022/04/26 16:01:32;;;;;;;1.70;1.27;;;20.00;55.70;;;;;;5079282;28;20021;-84
2022/04/26 16:04:00;;;;;;;2.50;1.50;;;20.20;56.40;;;;;;5080996;28;20029;-85
2022/04/26 16:06:26;;;;;;;3.72;1.10;;;20.40;55.20;;;;;;5082021;28;20070;-85
2022/04/26 16:08:51;;;;;;;1.55;1.30;;;20.60;54.90;;;;;;5074237;28;20460;-85
2022/04/26 16:22:15;;;;;;;2.63;1.00;;;19.80;54.80;;;;;;5071698;28;20038;-83
2022/04/26 16:24:41;;;;;;;1.05;0.82;;;19.70;54.40;;;;;;5089694;28;20063;-87
2022/04/26 16:27:08;;;;;;;5.25;1.30;;;19.40;54.50;;;;;;5090715;28;20044;-86
2022/04/26 16:29:33;;;;;;;1.65;1.10;;;19.20;55.40;;;;;;5091162;28;20044;-84
2022/04/26 16:31:59;;;;;;;1.90;1.33;;;18.90;55.80;;;;;;5080918;28;20069;-86
2022/04/26 16:34:24;;;;;;;1.52;1.17;;;18.70;55.70;;;;;;5091170;28;20028;-84
2022/04/26 16:36:51;;;;;;;1.77;1.27;;;18.70;55.80;;;;;;5088727;28;20111;-87
2022/04/26 16:39:16;;;;;;;2.10;1.55;;;18.60;55.70;;;;;;5083249;28;20491;-86
2022/04/26 16:41:42;;;;;;;2.88;1.40;;;18.60;56.20;;;;;;5086323;28;20028;-86
2022/04/26 16:44:08;;;;;;;1.75;1.35;;;18.40;56.40;;;;;;5100712;28;20082;-84
2022/04/26 16:46:35;;;;;;;2.95;1.98;;;18.50;57.00;;;;;;5096888;28;20647;-84
2022/04/26 16:49:02;;;;;;;1.92;1.25;;;18.70;56.60;;;;;;5088728;28;20032;-84
2022/04/26 16:51:30;;;;;;;2.30;1.20;;;18.90;56.60;;;;;;5089035;28;20052;-84
2022/04/26 16:53:59;;;;;;;1.90;1.38;;;19.10;56.20;;;;;;5083568;28;20052;-82
2022/04/26 16:56:24;;;;;;;3.13;1.55;;;19.20;56.50;;;;;;5087617;28;20027;-83
2022/04/26 16:58:50;;;;;;;2.17;1.10;;;19.40;56.60;;;;;;5081959;28;20498;-84
2022/04/26 17:01:15;;;;;;;1.73;1.33;;;19.40;55.50;;;;;;5084816;28;20024;-83
2022/04/26 17:03:41;;;;;;;2.75;1.40;;;19.40;55.80;;;;;;5082763;28;20036;-85
2022/04/26 17:06:07;;;;;;;5.20;1.60;;;19.20;56.00;;;;;;5087378;28;20016;-84
2022/04/26 17:08:33;;;;;;;1.83;1.40;;;19.20;55.90;;;;;;5102704;28;20102;-80